createdAt,value
2022-11-05T00:00:40.802Z,3.97
2022-11-05T00:03:27.428Z,3.95
2022-11-05T00:06:15.351Z,4.28
2022-11-05T00:09:01.002Z,4.03
2022-11-05T00:11:46.613Z,3.97
2022-11-05T00:14:32.330Z,4.88
2022-11-05T00:17:01.267Z,4.15
2022-11-05T00:19:30.662Z,4.70
2022-11-05T00:22:18.424Z,3.85
2022-11-05T00:25:05.842Z,4.22
2022-11-05T00:27:35.740Z,3.80
2022-11-05T00:30:05.114Z,4.18
2022-11-05T00:32:34.898Z,3.40
2022-11-05T00:35:01.753Z,3.63
2022-11-05T00:37:31.460Z,3.33
2022-11-05T00:40:01.306Z,2.90
2022-11-05T00:42:48.933Z,2.38
2022-11-05T00:45:18.297Z,2.97
2022-11-05T00:48:04.083Z,2.90
2022-11-05T00:50:31.702Z,3.10
2022-11-05T00:53:00.451Z,3.50
2022-11-05T00:55:44.774Z,3.15
2022-11-05T00:58:20.793Z,3.30
2022-11-05T01:01:01.369Z,2.67
2022-11-05T01:03:31.369Z,3.00
2022-11-05T01:06:14.111Z,3.00
2022-11-05T01:08:43.737Z,2.65
2022-11-05T01:11:33.272Z,2.88
2022-11-05T01:14:07.686Z,2.72
2022-11-05T01:16:35.592Z,3.20
2022-11-05T01:19:06.991Z,3.58
2022-11-05T01:21:36.027Z,3.47
2022-11-05T01:24:04.116Z,3.97
2022-11-05T01:26:33.240Z,4.57
2022-11-05T01:29:02.436Z,5.13
2022-11-05T01:31:29.377Z,4.95
2022-11-05T01:33:59.854Z,4.68
2022-11-05T01:36:28.980Z,4.75
2022-11-05T01:38:55.963Z,4.72
2022-11-05T01:41:25.829Z,4.00
2022-11-05T01:43:57.827Z,4.85
2022-11-05T01:46:37.682Z,4.57
2022-11-05T01:49:28.514Z,4.32
2022-11-05T01:51:57.235Z,4.93
2022-11-05T01:54:30.093Z,4.82
2022-11-05T01:57:02.790Z,4.07
2022-11-05T01:59:43.324Z,4.03
2022-11-05T02:02:12.947Z,4.30
2022-11-05T02:04:50.690Z,3.90
2022-11-05T02:07:20.684Z,4.25
2022-11-05T02:10:09.155Z,3.97
2022-11-05T02:12:39.792Z,3.65
2022-11-05T02:15:14.282Z,4.03
2022-11-05T02:17:58.986Z,3.83
2022-11-05T02:20:39.905Z,3.83
2022-11-05T02:23:49.452Z,3.97
2022-11-05T02:26:34.241Z,4.15
2022-11-05T02:29:13.867Z,3.90
2022-11-05T02:31:55.351Z,3.15
2022-11-05T02:34:43.815Z,3.40
2022-11-05T02:37:39.120Z,3.20
2022-11-05T02:40:20.753Z,2.70
2022-11-05T02:43:26.112Z,2.42
2022-11-05T02:46:16.897Z,2.95
2022-11-05T02:49:01.955Z,3.50
2022-11-05T02:51:35.349Z,2.60
2022-11-05T02:54:35.210Z,1.95
2022-11-05T02:57:03.586Z,2.10
2022-11-05T02:59:33.058Z,1.92
2022-11-05T03:02:04.291Z,1.90
2022-11-05T03:04:34.058Z,2.20
2022-11-05T03:07:36.134Z,1.80
2022-11-05T03:10:20.504Z,2.28
2022-11-05T03:13:13.215Z,2.20
2022-11-05T03:16:07.357Z,2.20
2022-11-05T03:18:47.811Z,1.85
2022-11-05T03:21:22.316Z,1.98
2022-11-05T03:24:03.615Z,1.80
2022-11-05T03:27:14.590Z,1.75
2022-11-05T03:29:54.132Z,2.20
2022-11-05T03:32:23.132Z,2.00
2022-11-05T03:35:11.060Z,2.53
2022-11-05T03:37:41.965Z,2.17
2022-11-05T03:40:13.015Z,2.03
2022-11-05T03:42:49.587Z,2.00
2022-11-05T03:45:23.220Z,2.00
2022-11-05T03:47:52.802Z,2.15
2022-11-05T03:50:53.846Z,1.80
2022-11-05T03:53:30.183Z,1.83
2022-11-05T03:56:28.927Z,2.20
2022-11-05T03:58:59.618Z,1.65
2022-11-05T04:01:27.736Z,1.90
2022-11-05T04:03:54.676Z,2.10
2022-11-05T04:06:39.968Z,2.00
2022-11-05T04:09:25.391Z,2.00
2022-11-05T04:12:10.564Z,1.83
2022-11-05T04:14:39.436Z,2.25
2022-11-05T04:17:09.848Z,1.63
2022-11-05T04:20:00.319Z,2.28
2022-11-05T04:22:48.955Z,1.75
2022-11-05T04:25:20.270Z,1.83
2022-11-05T04:27:47.891Z,1.98
2022-11-05T04:30:21.679Z,2.20
2022-11-05T04:33:06.171Z,1.90
2022-11-05T04:35:38.129Z,1.90
2022-11-05T04:38:08.371Z,2.00
2022-11-05T04:40:38.702Z,2.10
2022-11-05T04:43:09.367Z,2.00
2022-11-05T04:45:42.994Z,1.70
2022-11-05T04:48:12.497Z,2.03
2022-11-05T04:50:43.864Z,2.15
2022-11-05T04:53:16.477Z,2.00
2022-11-05T04:55:45.800Z,1.80
2022-11-05T04:58:15.123Z,1.90
2022-11-05T05:00:44.258Z,2.00
2022-11-05T05:03:13.696Z,2.15
2022-11-05T05:05:40.771Z,1.95
2022-11-05T05:08:07.587Z,1.98
2022-11-05T05:10:36.767Z,2.00
2022-11-05T05:13:03.673Z,1.90
2022-11-05T05:15:30.932Z,2.08
2022-11-05T05:17:57.772Z,1.80
2022-11-05T05:20:42.983Z,1.70
2022-11-05T05:23:11.204Z,1.75
2022-11-05T05:25:40.378Z,1.58
2022-11-05T05:28:07.219Z,2.05
2022-11-05T05:30:34.382Z,2.30
2022-11-05T05:33:07.661Z,2.05
2022-11-05T05:35:34.474Z,2.22
2022-11-05T05:38:05.818Z,2.17
2022-11-05T05:40:34.769Z,2.05
2022-11-05T05:43:04.693Z,1.75
2022-11-05T05:45:31.539Z,1.63
2022-11-05T05:47:58.453Z,1.70
2022-11-05T05:50:28.404Z,1.48
2022-11-05T05:52:59.837Z,1.63
2022-11-05T05:55:26.715Z,1.33
2022-11-05T05:57:57.038Z,2.10
2022-11-05T06:00:23.907Z,1.52
2022-11-05T06:02:52.931Z,1.80
2022-11-05T06:05:21.946Z,2.10
2022-11-05T06:07:56.968Z,1.60
2022-11-05T06:10:25.005Z,1.40
2022-11-05T06:12:51.971Z,1.05
2022-11-05T06:15:18.843Z,0.98
2022-11-05T06:17:46.247Z,0.80
2022-11-05T06:20:15.722Z,0.80
2022-11-05T06:22:42.733Z,0.90
2022-11-05T06:25:10.367Z,0.90
2022-11-05T06:27:39.820Z,0.60
2022-11-05T06:30:07.663Z,0.50
2022-11-05T06:32:36.984Z,0.73
2022-11-05T06:35:06.414Z,0.70
2022-11-05T06:37:33.834Z,0.60
2022-11-05T06:40:03.667Z,0.60
2022-11-05T06:42:30.573Z,0.32
2022-11-05T06:44:59.954Z,0.50
2022-11-05T06:47:29.293Z,0.47
2022-11-05T06:49:57.405Z,0.40
2022-11-05T06:52:31.343Z,0.50
2022-11-05T06:54:58.300Z,0.28
2022-11-05T06:57:25.250Z,0.20
2022-11-05T06:59:57.105Z,0.20
2022-11-05T07:02:31.553Z,0.40
2022-11-05T07:05:00.727Z,0.50
2022-11-05T07:07:27.563Z,0.40
2022-11-05T07:09:54.717Z,0.40
2022-11-05T07:12:24.174Z,0.40
2022-11-05T07:14:51.023Z,0.43
2022-11-05T07:17:20.764Z,0.60
2022-11-05T07:19:47.618Z,0.57
2022-11-05T07:22:14.732Z,0.50
2022-11-05T07:24:47.121Z,0.40
2022-11-05T07:27:14.335Z,0.50
2022-11-05T07:29:41.195Z,1.30
2022-11-05T07:32:08.125Z,1.08
2022-11-05T07:34:35.048Z,1.23
2022-11-05T07:37:03.241Z,0.90
2022-11-05T07:39:30.178Z,1.02
2022-11-05T07:41:58.312Z,1.75
2022-11-05T07:44:25.303Z,1.60
2022-11-05T07:46:54.509Z,1.00
2022-11-05T07:49:21.474Z,1.10
2022-11-05T07:51:48.331Z,0.80
2022-11-05T07:54:15.198Z,0.70
2022-11-05T07:56:47.899Z,0.82
2022-11-05T07:59:14.714Z,0.60
2022-11-05T08:01:41.817Z,0.50
2022-11-05T08:04:15.755Z,0.68
2022-11-05T08:06:42.622Z,0.50
2022-11-05T08:09:09.829Z,0.47
2022-11-05T08:11:40.017Z,0.60
2022-11-05T08:14:07.001Z,0.43
2022-11-05T08:16:33.854Z,0.47
2022-11-05T08:19:00.891Z,0.63
2022-11-05T08:21:29.458Z,0.40
2022-11-05T08:23:56.446Z,0.50
2022-11-05T08:26:25.838Z,0.57
2022-11-05T08:28:52.685Z,0.57
2022-11-05T08:31:22.155Z,0.70
2022-11-05T08:33:51.184Z,0.50
2022-11-05T08:36:20.468Z,0.65
2022-11-05T08:38:49.520Z,2.00
2022-11-05T08:41:16.377Z,0.85
2022-11-05T08:43:47.805Z,0.80
2022-11-05T08:46:14.695Z,0.98
2022-11-05T08:48:41.501Z,0.90
2022-11-05T08:51:08.552Z,0.75
2022-11-05T08:53:40.163Z,0.90
2022-11-05T08:58:38.661Z,0.60
2022-11-05T09:03:32.815Z,0.63
2022-11-05T09:06:02.238Z,0.68
2022-11-05T09:08:29.291Z,0.90
2022-11-05T09:11:01.056Z,1.13
2022-11-05T09:13:28.062Z,1.23
2022-11-05T09:15:55.059Z,1.20
2022-11-05T09:18:22.013Z,1.30
2022-11-05T09:20:51.199Z,1.35
2022-11-05T09:23:20.557Z,1.40
2022-11-05T09:25:48.107Z,1.73
2022-11-05T09:28:21.235Z,1.65
2022-11-05T09:30:52.752Z,1.90
2022-11-05T09:35:53.542Z,1.30
2022-11-05T09:38:20.544Z,1.60
2022-11-05T09:41:08.768Z,1.70
2022-11-05T09:43:49.187Z,1.85
2022-11-05T09:46:30.293Z,1.90
2022-11-05T09:49:24.484Z,1.70
2022-11-05T09:51:54.765Z,1.95
2022-11-05T09:54:31.527Z,1.92
2022-11-05T09:57:03.402Z,1.83
2022-11-05T09:59:44.877Z,1.95
2022-11-05T10:02:22.209Z,2.10
2022-11-05T10:04:56.682Z,2.30
2022-11-05T10:07:31.682Z,2.70
2022-11-05T10:10:09.024Z,2.47
2022-11-05T10:12:46.860Z,2.70
2022-11-05T10:15:27.456Z,3.13
2022-11-05T10:18:09.527Z,2.75
2022-11-05T10:20:38.827Z,2.70
2022-11-05T10:23:15.942Z,3.35
2022-11-05T10:26:10.394Z,2.70
2022-11-05T10:28:41.945Z,2.63
2022-11-05T10:33:47.017Z,2.55
2022-11-05T10:36:32.080Z,2.60
2022-11-05T10:39:19.239Z,2.40
2022-11-05T10:42:34.196Z,2.55
2022-11-05T10:45:31.491Z,2.47
2022-11-05T10:48:32.340Z,2.50
2022-11-05T10:50:59.420Z,2.33
2022-11-05T10:53:37.170Z,2.25
2022-11-05T10:56:04.641Z,2.70
2022-11-05T10:58:37.157Z,2.53
2022-11-05T11:01:13.539Z,2.25
2022-11-05T11:03:49.540Z,2.20
2022-11-05T11:06:24.532Z,2.42
2022-11-05T11:08:53.944Z,2.15
2022-11-05T11:11:37.030Z,1.92
2022-11-05T11:14:12.787Z,2.05
2022-11-05T11:16:45.722Z,2.17
2022-11-05T11:19:33.291Z,2.10
2022-11-05T11:22:03.173Z,2.63
2022-11-05T11:24:37.208Z,1.92
2022-11-05T11:27:13.669Z,2.53
2022-11-05T11:29:49.405Z,2.40
2022-11-05T11:32:20.675Z,2.53
2022-11-05T11:34:55.099Z,2.58
2022-11-05T11:37:42.001Z,3.00
2022-11-05T11:40:23.226Z,2.50
2022-11-05T11:42:58.129Z,2.10
2022-11-05T11:45:50.199Z,3.40
2022-11-05T11:48:29.944Z,3.20
2022-11-05T11:51:16.038Z,2.78
2022-11-05T11:53:42.960Z,2.63
2022-11-05T11:56:25.113Z,2.42
2022-11-05T11:58:57.686Z,2.67
2022-11-05T12:01:47.907Z,2.20
2022-11-05T12:04:27.116Z,2.90
2022-11-05T12:07:18.100Z,2.58
2022-11-05T12:10:15.528Z,2.57
2022-11-05T12:13:03.919Z,2.50
2022-11-05T12:15:54.543Z,3.28
2022-11-05T12:18:39.401Z,2.72
2022-11-05T12:21:52.936Z,3.50
2022-11-05T12:24:47.862Z,3.00
2022-11-05T12:27:37.925Z,3.33
2022-11-05T12:30:18.574Z,3.38
2022-11-05T12:33:08.283Z,3.22
2022-11-05T12:35:54.808Z,3.65
2022-11-05T12:38:33.251Z,2.33
2022-11-05T12:41:15.608Z,3.03
2022-11-05T12:44:14.975Z,2.85
2022-11-05T12:46:50.635Z,2.90
2022-11-05T12:49:52.075Z,3.00
2022-11-05T12:52:27.772Z,2.70
2022-11-05T12:55:15.586Z,2.63
2022-11-05T12:57:51.983Z,2.95
2022-11-05T13:00:27.106Z,2.95
2022-11-05T13:03:38.784Z,2.72
2022-11-05T13:06:24.540Z,2.90
2022-11-05T13:09:14.892Z,2.63
2022-11-05T13:12:02.730Z,3.13
2022-11-05T13:14:40.441Z,2.60
2022-11-05T13:17:18.792Z,2.83
2022-11-05T13:20:01.483Z,2.35
2022-11-05T13:22:38.504Z,2.28
2022-11-05T13:25:30.292Z,2.30
2022-11-05T13:31:01.562Z,2.15
2022-11-05T13:33:41.169Z,2.65
2022-11-05T13:36:44.771Z,2.58
2022-11-05T13:39:32.229Z,2.35
2022-11-05T13:42:38.967Z,2.20
2022-11-05T13:45:24.741Z,2.17
2022-11-05T13:48:17.287Z,2.28
2022-11-05T13:51:24.339Z,2.60
2022-11-05T13:54:26.627Z,2.45
2022-11-05T13:57:12.172Z,1.80
2022-11-05T14:00:03.555Z,2.08
2022-11-05T14:02:45.453Z,2.20
2022-11-05T14:05:26.423Z,2.13
2022-11-05T14:07:59.287Z,1.98
2022-11-05T14:10:31.296Z,2.00
2022-11-05T14:13:07.122Z,2.22
2022-11-05T14:15:34.288Z,2.60
2022-11-05T14:18:34.133Z,2.67
2022-11-05T14:21:06.754Z,2.40
2022-11-05T14:23:48.829Z,1.90
2022-11-05T14:26:31.470Z,2.08
2022-11-05T14:29:04.589Z,2.08
2022-11-05T14:32:07.253Z,1.83
2022-11-05T14:34:44.221Z,2.13
2022-11-05T14:37:11.005Z,2.13
2022-11-05T14:39:38.930Z,2.70
2022-11-05T14:42:14.575Z,2.80
2022-11-05T14:45:30.271Z,3.08
2022-11-05T14:48:24.529Z,2.83
2022-11-05T14:50:51.551Z,2.78
2022-11-05T14:53:34.452Z,3.50
2022-11-05T14:56:09.980Z,3.20
2022-11-05T14:58:40.119Z,3.03
2022-11-05T15:01:42.249Z,2.95
2022-11-05T15:04:35.896Z,3.22
2022-11-05T15:07:02.749Z,2.80
2022-11-05T15:09:51.984Z,3.50
2022-11-05T15:12:25.621Z,3.05
2022-11-05T15:15:10.807Z,3.38
2022-11-05T15:18:11.617Z,2.88
2022-11-05T15:20:51.319Z,3.28
2022-11-05T15:23:24.886Z,3.33
2022-11-05T15:26:09.819Z,3.70
2022-11-05T15:28:46.610Z,3.35
2022-11-05T15:31:13.448Z,3.58
2022-11-05T15:33:43.093Z,3.78
2022-11-05T15:36:34.345Z,4.10
2022-11-05T15:39:29.016Z,4.32
2022-11-05T15:41:48.132Z,4.72
2022-11-05T15:44:30.010Z,4.57
2022-11-05T15:47:11.215Z,3.70
2022-11-05T15:49:43.018Z,2.80
2022-11-05T15:52:18.303Z,3.70
2022-11-05T15:55:06.086Z,3.60
2022-11-05T15:57:40.072Z,3.35
2022-11-05T16:00:23.205Z,3.28
2022-11-05T16:03:14.755Z,3.80
2022-11-05T16:05:48.973Z,4.00
2022-11-05T16:08:29.042Z,4.38
2022-11-05T16:11:01.499Z,5.53
2022-11-05T16:13:41.138Z,5.03
2022-11-05T16:16:16.606Z,6.28
2022-11-05T16:18:45.029Z,6.28
2022-11-05T16:21:15.904Z,8.05
2022-11-05T16:23:48.787Z,10.38
2022-11-05T16:29:38.037Z,11.38
2022-11-05T16:32:31.087Z,11.68
2022-11-05T16:35:05.474Z,11.88
2022-11-05T16:37:40.998Z,13.05
2022-11-05T16:40:20.583Z,14.93
2022-11-05T16:42:48.771Z,12.27
2022-11-05T16:45:20.651Z,9.35
2022-11-05T16:47:48.096Z,8.65
2022-11-05T16:50:24.137Z,8.32
2022-11-05T16:52:51.772Z,9.90
2022-11-05T16:55:21.700Z,9.20
2022-11-05T16:57:54.804Z,9.63
2022-11-05T17:00:24.982Z,10.45
2022-11-05T17:02:52.808Z,9.20
2022-11-05T17:05:28.328Z,10.13
2022-11-05T17:07:55.661Z,7.95
2022-11-05T17:10:24.738Z,10.05
2022-11-05T17:12:52.264Z,8.43
2022-11-05T17:15:20.818Z,7.50
2022-11-05T17:17:48.719Z,9.02
2022-11-05T17:20:36.492Z,6.75
2022-11-05T17:23:07.784Z,5.93
2022-11-05T17:25:35.355Z,5.20
2022-11-05T17:28:03.007Z,5.47
2022-11-05T17:30:32.376Z,6.15
2022-11-05T17:32:59.615Z,5.22
2022-11-05T17:35:27.305Z,5.97
2022-11-05T17:37:54.323Z,6.50
2022-11-05T17:40:22.987Z,7.53
2022-11-05T17:42:54.031Z,8.38
2022-11-05T17:45:20.923Z,8.30
2022-11-05T17:47:47.854Z,7.68
2022-11-05T17:50:16.407Z,9.02
2022-11-05T17:52:44.045Z,8.30
2022-11-05T17:55:19.299Z,8.27
2022-11-05T17:57:53.724Z,9.50
2022-11-05T18:00:25.907Z,8.27
2022-11-05T18:02:54.555Z,8.23
2022-11-05T18:05:24.069Z,7.85
2022-11-05T18:07:53.906Z,7.50
2022-11-05T18:10:21.394Z,7.30
2022-11-05T18:12:51.503Z,6.75
2022-11-05T18:15:20.978Z,6.13
2022-11-05T18:17:47.927Z,8.38
2022-11-05T18:20:19.477Z,7.78
2022-11-05T18:22:50.229Z,7.15
2022-11-05T18:25:19.739Z,9.40
2022-11-05T18:27:51.131Z,9.32
2022-11-05T18:30:18.264Z,7.30
2022-11-05T18:32:48.294Z,7.78
2022-11-05T18:35:15.376Z,8.23
2022-11-05T18:37:42.456Z,8.45
2022-11-05T18:40:10.201Z,7.43
2022-11-05T18:42:37.312Z,7.88
2022-11-05T18:45:07.738Z,7.78
2022-11-05T18:47:37.064Z,6.63
2022-11-05T18:50:09.355Z,8.43
2022-11-05T18:52:41.468Z,8.18
2022-11-05T18:55:11.001Z,8.23
2022-11-05T18:57:38.016Z,8.52
2022-11-05T19:00:05.991Z,7.65
2022-11-05T19:02:35.919Z,6.97
2022-11-05T19:07:50.751Z,7.18
2022-11-05T19:10:17.816Z,6.13
2022-11-05T19:12:44.838Z,6.38
2022-11-05T19:15:11.778Z,7.05
2022-11-05T19:17:38.706Z,6.65
2022-11-05T19:20:09.685Z,5.75
2022-11-05T19:22:41.235Z,6.20
2022-11-05T19:25:08.372Z,6.45
2022-11-05T19:27:37.477Z,6.47
2022-11-05T19:30:06.227Z,6.57
2022-11-05T19:32:33.145Z,5.78
2022-11-05T19:35:00.094Z,5.97
2022-11-05T19:37:28.411Z,4.43
2022-11-05T19:39:55.339Z,5.35
2022-11-05T19:42:22.186Z,4.95
2022-11-05T19:44:50.369Z,5.63
2022-11-05T19:47:17.282Z,4.78
2022-11-05T19:49:47.914Z,6.00
2022-11-05T19:52:14.805Z,6.65
2022-11-05T19:54:41.929Z,5.93
2022-11-05T19:57:10.111Z,5.70
2022-11-05T19:59:36.999Z,5.95
2022-11-05T20:02:04.644Z,5.45
2022-11-05T20:04:34.420Z,5.57
2022-11-05T20:07:01.284Z,5.07
2022-11-05T20:09:30.871Z,5.97
2022-11-05T20:12:00.010Z,4.88
2022-11-05T20:14:29.699Z,4.95
2022-11-05T20:16:59.865Z,4.97
2022-11-05T20:19:26.775Z,4.63
2022-11-05T20:22:00.503Z,5.20
2022-11-05T20:24:27.432Z,4.97
2022-11-05T20:26:55.804Z,5.30
2022-11-05T20:29:27.875Z,4.68
2022-11-05T20:31:57.940Z,4.70
2022-11-05T20:34:24.831Z,4.57
2022-11-05T20:36:51.679Z,5.25
2022-11-05T20:39:21.293Z,5.32
2022-11-05T20:41:48.230Z,5.03
2022-11-05T20:44:17.618Z,4.78
2022-11-05T20:46:46.592Z,5.53
2022-11-05T20:49:13.427Z,5.97
2022-11-05T20:51:41.486Z,4.65
2022-11-05T20:54:09.503Z,5.22
2022-11-05T20:56:36.411Z,4.68
2022-11-05T20:59:05.320Z,5.72
2022-11-05T21:01:34.459Z,5.32
2022-11-05T21:04:02.949Z,5.28
2022-11-05T21:06:32.844Z,4.80
2022-11-05T21:09:01.139Z,4.75
2022-11-05T21:11:50.327Z,4.30
2022-11-05T21:14:17.316Z,4.88
2022-11-05T21:16:44.265Z,5.13
2022-11-05T21:19:15.100Z,5.15
2022-11-05T21:21:42.814Z,5.17
2022-11-05T21:24:09.707Z,5.13
2022-11-05T21:26:36.536Z,4.45
2022-11-05T21:29:07.675Z,4.18
2022-11-05T21:31:42.301Z,4.85
2022-11-05T21:34:09.240Z,3.75
2022-11-05T21:36:36.471Z,4.78
2022-11-05T21:39:07.729Z,4.50
2022-11-05T21:41:37.564Z,4.85
2022-11-05T21:44:04.765Z,4.25
2022-11-05T21:46:31.878Z,5.03
2022-11-05T21:49:00.095Z,5.53
2022-11-05T21:51:50.432Z,4.43
2022-11-05T21:54:40.831Z,3.72
2022-11-05T21:57:34.739Z,4.72
2022-11-05T22:00:09.761Z,5.30
2022-11-05T22:02:37.466Z,4.93
2022-11-05T22:05:05.897Z,4.65
2022-11-05T22:07:37.799Z,4.20
2022-11-05T22:10:15.582Z,4.13
2022-11-05T22:12:46.177Z,3.97
2022-11-05T22:15:13.665Z,3.85
2022-11-05T22:17:46.242Z,3.72
2022-11-05T22:20:14.508Z,4.40
2022-11-05T22:22:41.365Z,4.20
2022-11-05T22:25:09.352Z,3.38
2022-11-05T22:27:36.448Z,3.90
2022-11-05T22:30:03.649Z,3.63
2022-11-05T22:32:30.565Z,3.95
2022-11-05T22:34:57.379Z,4.05
2022-11-05T22:37:24.377Z,3.00
2022-11-05T22:39:51.807Z,4.00
2022-11-05T22:42:18.670Z,3.25
2022-11-05T22:44:50.731Z,3.63
2022-11-05T22:47:19.655Z,2.83
2022-11-05T22:49:51.676Z,3.40
2022-11-05T22:52:23.683Z,3.13
2022-11-05T22:54:50.509Z,3.08
2022-11-05T22:57:17.401Z,3.60
2022-11-05T22:59:44.209Z,4.68
2022-11-05T23:02:11.243Z,3.33
2022-11-05T23:04:38.797Z,3.78
2022-11-05T23:07:28.672Z,3.25
2022-11-05T23:10:14.191Z,3.53
2022-11-05T23:12:43.070Z,3.25
2022-11-05T23:15:30.309Z,3.60
2022-11-05T23:18:17.871Z,3.90
2022-11-05T23:21:03.249Z,3.33
2022-11-05T23:23:51.198Z,3.25
2022-11-05T23:26:38.779Z,3.10
2022-11-05T23:29:07.729Z,2.97
2022-11-05T23:31:52.891Z,3.72
2022-11-05T23:34:19.736Z,3.75
2022-11-05T23:37:05.133Z,3.63
2022-11-05T23:39:32.013Z,3.65
2022-11-05T23:42:17.408Z,3.38
2022-11-05T23:45:05.635Z,3.25
2022-11-05T23:47:54.875Z,3.28
2022-11-05T23:50:21.844Z,3.33
2022-11-05T23:52:50.886Z,3.55
2022-11-05T23:55:25.389Z,3.47
2022-11-05T23:57:52.804Z,3.70
